Terminal Aerodrome Forecast
Issued by NWS Albuquerque, NM

Home | Current Version | Previous Version | Text Only | Print | Product List | Glossary On
Versions: 1 2 3 4 5 6 7 8 9 10 11 12 13 14 15 16
000
FTUS45 KABQ 241731
TAFABQ
TAF
KABQ 241731Z 2418/2518 VRB06KT P6SM SKC
     FM241900 27012G20KT P6SM SKC
     FM242100 28019G29KT P6SM SKC
     FM250230 25008KT P6SM SKC
     FM251000 16006KT P6SM SCT200
     FM251500 23015G24KT P6SM SCT200=

USA.gov is the U.S. government's official web portal to all federal, state and local government web resources and services.